Time;durP1;ratioP1;P1;durP2;ratioP2;P2;SDS_P1;SDS_P2;PMS_P1;PMS_P2;Temp;Humidity;BMP_temperature;BMP_pressure;BME280_temperature;BME280_humidity;BME280_pressure;Samples;Min_cycle;Max_cycle;Signal;HPM_P1;HPM_P2
2022/01/23 00:01:46;;;;;;;16.13;7.60;;;5.60;99.90;;;;;;5067849;28;20179;-69
2022/01/23 00:04:12;;;;;;;13.82;7.80;;;;;;;;;;5067955;28;20059;-69
2022/01/23 00:06:38;;;;;;;15.80;7.25;;;5.70;99.90;;;;;;5067862;28;20174;-69
2022/01/23 00:09:04;;;;;;;13.65;6.88;;;4.90;99.90;;;;;;5067732;28;20571;-69
2022/01/23 00:11:31;;;;;;;17.48;7.82;;;5.70;99.90;;;;;;5067745;28;20040;-69
2022/01/23 00:19:09;;;;;;;21.38;10.60;;;4.90;99.90;;;;;;5067716;28;20132;-70
2022/01/23 00:21:37;;;;;;;24.38;12.00;;;5.40;99.90;;;;;;5067534;28;20087;-70
2022/01/23 00:31:58;;;;;;;22.30;10.50;;;;;;;;;;5110579;28;20051;-70
2022/01/23 00:34:24;;;;;;;25.77;11.13;;;5.50;99.90;;;;;;5111007;28;20105;-70
2022/01/23 00:36:49;;;;;;;19.42;9.00;;;5.00;99.90;;;;;;5110853;28;20479;-70
2022/01/23 00:39:16;;;;;;;19.38;8.23;;;5.60;99.90;;;;;;5110626;28;20522;-70
2022/01/23 00:41:42;;;;;;;26.50;12.77;;;5.50;99.90;;;;;;5109504;28;20160;-70
2022/01/23 00:44:08;;;;;;;23.42;10.63;;;5.50;99.90;;;;;;5110483;28;20083;-70
2022/01/23 00:46:36;;;;;;;22.58;9.65;;;5.50;99.90;;;;;;5110907;28;20422;-70
2022/01/23 00:51:37;;;;;;;26.60;11.35;;;5.70;99.90;;;;;;5108902;28;20469;-70
2022/01/23 00:54:04;;;;;;;21.80;8.48;;;5.50;99.90;;;;;;5108950;28;20051;-70
2022/01/23 00:56:30;;;;;;;19.80;8.10;;;5.60;99.90;;;;;;5112626;28;20051;-70
2022/01/23 00:58:56;;;;;;;15.85;8.48;;;;;;;;;;5112877;28;20051;-70
2022/01/23 01:01:22;;;;;;;19.83;8.18;;;5.90;99.90;;;;;;5114232;28;20043;-70
2022/01/23 01:03:48;;;;;;;21.20;9.60;;;5.50;99.90;;;;;;5112836;28;20040;-70
2022/01/23 01:06:15;;;;;;;19.38;11.25;;;5.80;99.90;;;;;;5114772;28;20051;-70
2022/01/23 01:08:42;;;;;;;23.27;13.15;;;5.70;99.90;;;;;;5112980;28;20118;-70
2022/01/23 01:14:19;;;;;;;20.55;8.73;;;;;;;;;;5112438;28;20066;-70
2022/01/23 01:17:05;;;;;;;19.02;8.48;;;;;;;;;;5112332;28;20060;-70
2022/01/23 01:30:44;;;;;;;23.75;10.52;;;5.00;99.90;;;;;;5112529;28;20061;-71
2022/01/23 01:33:23;;;;;;;19.20;10.50;;;5.50;99.90;;;;;;5113699;28;20047;-71
2022/01/23 01:36:00;;;;;;;21.63;10.98;;;5.80;99.90;;;;;;5113493;28;20069;-72
2022/01/23 01:38:31;;;;;;;23.23;10.57;;;;;;;;;;5112620;28;20043;-71
2022/01/23 01:40:57;;;;;;;22.20;10.07;;;5.60;99.90;;;;;;5112103;28;20100;-71
2022/01/23 01:43:23;;;;;;;21.80;10.30;;;5.60;99.90;;;;;;5113853;28;20113;-71
2022/01/23 01:45:49;;;;;;;17.40;9.38;;;5.50;99.90;;;;;;5112003;28;20436;-71
2022/01/23 01:48:18;;;;;;;23.23;10.07;;;5.50;99.90;;;;;;5113596;28;20070;-71
2022/01/23 01:50:46;;;;;;;24.83;10.88;;;;;;;;;;5112229;28;20047;-71
2022/01/23 01:53:13;;;;;;;20.75;10.38;;;5.30;99.90;;;;;;5113186;28;20040;-72
2022/01/23 01:55:46;;;;;;;18.50;9.65;;;5.20;99.90;;;;;;5113004;28;20552;-71
2022/01/23 02:09:43;;;;;;;19.45;9.38;;;7.00;99.90;;;;;;5049639;28;20056;-71
2022/01/23 02:55:27;;;;;;;19.92;9.93;;;5.50;99.90;;;;;;5112299;28;20122;-72
2022/01/23 02:57:56;;;;;;;21.60;10.63;;;5.50;99.90;;;;;;5111021;28;20047;-71
2022/01/23 03:00:26;;;;;;;23.98;11.02;;;5.40;99.90;;;;;;5112155;28;20540;-71
2022/01/23 03:03:01;;;;;;;20.00;10.43;;;4.90;99.90;;;;;;5112175;28;20116;-71
2022/01/23 03:30:16;;;;;;;25.60;11.35;;;5.40;99.90;;;;;;5094510;28;20055;-71
2022/01/23 03:32:38;;;;;;;35.95;10.95;;;5.90;99.90;;;;;;5107153;28;20054;-71
2022/01/23 03:35:05;;;;;;;24.17;9.93;;;5.50;99.90;;;;;;5110232;28;20047;-71
2022/01/23 03:37:31;;;;;;;25.40;11.48;;;;;;;;;;5111478;28;20112;-71
2022/01/23 03:39:57;;;;;;;26.08;11.10;;;5.30;99.90;;;;;;5111258;28;20084;-71
2022/01/23 03:42:24;;;;;;;29.92;11.88;;;;;;;;;;5111258;28;20503;-71
2022/01/23 03:47:39;;;;;;;22.02;10.90;;;5.50;99.90;;;;;;5109666;28;20407;-71
2022/01/23 03:50:08;;;;;;;29.83;12.25;;;4.90;99.90;;;;;;5111137;28;20054;-72
2022/01/23 03:52:35;;;;;;;27.63;12.45;;;4.60;99.90;;;;;;5110304;28;20055;-71
2022/01/23 03:55:06;;;;;;;33.00;12.45;;;5.40;99.90;;;;;;5111407;28;20043;-71
2022/01/23 03:57:32;;;;;;;32.60;12.43;;;5.30;99.90;;;;;;5110157;28;20244;-72
2022/01/23 03:59:58;;;;;;;32.35;13.00;;;5.90;99.90;;;;;;5109608;28;20079;-71
2022/01/23 04:02:24;;;;;;;23.40;11.88;;;5.70;99.90;;;;;;5109462;28;20169;-71
2022/01/23 04:04:50;;;;;;;24.52;11.93;;;5.40;99.90;;;;;;5126856;27;20031;-71
2022/01/23 04:07:21;;;;;;;24.52;11.80;;;5.40;99.90;;;;;;5109727;28;20035;-72
2022/01/23 04:09:47;;;;;;;31.05;11.98;;;5.20;99.90;;;;;;5110780;28;20043;-71
2022/01/23 04:12:28;;;;;;;30.38;12.60;;;5.40;99.90;;;;;;5110908;28;20048;-71
2022/01/23 04:15:06;;;;;;;26.77;11.73;;;5.90;99.90;;;;;;5110584;28;20054;-71
2022/01/23 04:34:11;;;;;;;28.27;12.38;;;5.70;99.90;;;;;;5113470;28;20055;-72
2022/01/23 05:06:40;;;;;;;32.58;14.48;;;;;;;;;;5112970;28;20051;-71
2022/01/23 05:09:10;;;;;;;34.78;14.68;;;5.60;99.90;;;;;;5112654;28;20047;-71
2022/01/23 05:11:37;;;;;;;33.45;14.73;;;;;;;;;;5114264;28;20047;-72
2022/01/23 05:14:04;;;;;;;28.40;14.77;;;5.50;99.90;;;;;;5114313;28;20052;-71
2022/01/23 05:16:34;;;;;;;36.20;15.48;;;4.80;99.90;;;;;;5112870;28;20044;-71
2022/01/23 05:19:01;;;;;;;41.50;16.20;;;5.40;99.90;;;;;;5113145;28;20044;-71
2022/01/23 05:24:04;;;;;;;27.75;13.88;;;4.80;99.90;;;;;;5112713;28;20056;-72
2022/01/23 05:26:44;;;;;;;43.35;17.13;;;;;;;;;;5113691;28;20043;-71
2022/01/23 05:29:11;;;;;;;49.08;17.65;;;4.90;99.90;;;;;;5112551;28;20054;-72
2022/01/23 05:31:39;;;;;;;39.65;17.23;;;5.70;99.90;;;;;;5112394;28;20051;-72
2022/01/23 05:34:05;;;;;;;51.00;18.35;;;5.20;99.90;;;;;;5112255;28;20055;-70
2022/01/23 05:36:32;;;;;;;47.70;18.45;;;4.70;99.90;;;;;;5112611;28;20392;-70
2022/01/23 05:38:57;;;;;;;38.83;17.75;;;4.80;99.90;;;;;;5112658;28;20081;-70
2022/01/23 05:41:24;;;;;;;50.03;18.65;;;5.80;99.90;;;;;;5129155;27;20624;-70
2022/01/23 05:43:50;;;;;;;46.35;18.40;;;4.80;99.90;;;;;;5112528;28;20054;-70
2022/01/23 05:46:19;;;;;;;36.60;16.50;;;;;;;;;;5113455;28;20051;-70
2022/01/23 05:48:45;;;;;;;43.03;18.58;;;5.70;99.90;;;;;;5113637;28;20082;-70
2022/01/23 05:51:14;;;;;;;41.38;17.80;;;4.70;99.90;;;;;;5112357;28;20537;-71
2022/01/23 05:53:40;;;;;;;41.58;18.25;;;;;;;;;;5114075;28;20054;-71
2022/01/23 05:56:07;;;;;;;45.42;18.65;;;5.30;99.90;;;;;;5112291;28;20386;-72
2022/01/23 05:58:33;;;;;;;46.15;19.35;;;5.40;99.90;;;;;;5113413;28;20059;-72
2022/01/23 06:01:00;;;;;;;49.50;19.83;;;4.80;99.90;;;;;;5113647;28;20044;-70
2022/01/23 06:03:26;;;;;;;50.88;19.35;;;;;;;;;;5112457;28;20069;-70
2022/01/23 06:05:54;;;;;;;53.47;19.23;;;5.30;99.90;;;;;;5112201;28;20062;-70
2022/01/23 06:08:22;;;;;;;39.08;17.52;;;;;;;;;;5113599;28;20047;-70
2022/01/23 06:10:57;;;;;;;43.47;18.65;;;4.80;99.90;;;;;;5113361;27;20068;-71
2022/01/23 06:13:25;;;;;;;50.13;18.17;;;5.30;99.90;;;;;;5112748;28;20043;-71
2022/01/23 06:15:53;;;;;;;40.00;17.77;;;5.30;99.90;;;;;;5111395;28;20237;-72
2022/01/23 06:18:19;;;;;;;37.10;16.98;;;5.60;99.90;;;;;;5111750;28;20043;-71
2022/01/23 06:20:45;;;;;;;49.90;18.60;;;5.30;99.90;;;;;;5112722;28;20558;-72
2022/01/23 06:23:12;;;;;;;44.88;18.10;;;5.60;99.90;;;;;;5111198;28;20105;-71
2022/01/23 06:25:43;;;;;;;46.47;19.27;;;5.30;99.90;;;;;;5111387;28;20040;-71
2022/01/23 06:28:09;;;;;;;41.33;18.42;;;5.30;99.90;;;;;;5111503;28;20047;-70
2022/01/23 06:30:36;;;;;;;50.20;19.48;;;5.30;99.90;;;;;;5128879;27;20116;-70
2022/01/23 06:33:03;;;;;;;48.10;19.70;;;5.20;99.90;;;;;;5112880;27;20572;-70
2022/01/23 06:35:29;;;;;;;43.22;18.05;;;5.00;99.90;;;;;;5112658;28;20043;-70
2022/01/23 06:37:54;;;;;;;42.55;18.27;;;5.30;99.90;;;;;;5111639;28;20054;-70
2022/01/23 06:40:21;;;;;;;42.85;18.73;;;;;;;;;;5111613;28;20062;-70
2022/01/23 06:42:48;;;;;;;45.78;18.35;;;5.40;99.90;;;;;;5113001;28;20090;-70
2022/01/23 06:45:13;;;;;;;42.22;17.67;;;5.00;99.90;;;;;;5111505;28;20042;-70
2022/01/23 06:47:39;;;;;;;50.80;18.80;;;5.40;99.90;;;;;;5112867;28;20043;-70
2022/01/23 06:50:06;;;;;;;44.17;18.17;;;;;;;;;;5112532;28;20043;-70
2022/01/23 06:52:33;;;;;;;45.65;17.90;;;5.30;99.90;;;;;;5111129;28;20047;-70
2022/01/23 06:55:00;;;;;;;40.15;16.48;;;5.20;99.90;;;;;;5111235;28;20368;-70
2022/01/23 06:57:26;;;;;;;35.50;16.20;;;;;;;;;;5112790;28;20123;-70
2022/01/23 06:59:52;;;;;;;37.33;16.58;;;5.60;99.90;;;;;;5110996;28;20048;-70
2022/01/23 07:02:18;;;;;;;32.80;15.63;;;5.40;99.90;;;;;;5112120;28;20050;-70
2022/01/23 07:04:43;;;;;;;35.22;17.10;;;5.40;99.90;;;;;;5110821;28;20479;-70
2022/01/23 07:07:09;;;;;;;38.28;18.23;;;;;;;;;;5110846;28;20040;-70
2022/01/23 07:09:35;;;;;;;34.53;16.40;;;5.30;99.90;;;;;;5110631;28;20090;-70
2022/01/23 07:12:01;;;;;;;34.83;16.23;;;;;;;;;;5093499;28;20495;-71
2022/01/23 07:14:27;;;;;;;36.10;15.90;;;;;;;;;;5111478;28;20059;-72
2022/01/23 07:16:53;;;;;;;30.55;15.07;;;;;;;;;;5110518;28;20047;-72
2022/01/23 07:19:19;;;;;;;37.63;15.80;;;5.40;99.90;;;;;;5110260;28;20123;-72
2022/01/23 07:21:46;;;;;;;35.40;16.35;;;4.70;99.90;;;;;;5111156;28;20119;-72
2022/01/23 07:24:12;;;;;;;36.65;16.80;;;5.60;99.90;;;;;;5111044;27;20039;-71
2022/01/23 07:26:38;;;;;;;41.60;16.98;;;5.40;99.90;;;;;;5111819;28;20039;-70
2022/01/23 07:29:06;;;;;;;40.30;17.17;;;5.60;99.90;;;;;;5110319;28;20053;-70
2022/01/23 07:31:55;;;;;;;37.15;16.98;;;5.40;99.90;;;;;;5110266;28;20063;-70
2022/01/23 07:34:18;;;;;;;42.92;17.30;;;5.30;99.90;;;;;;5110061;28;20134;-70
2022/01/23 07:36:44;;;;;;;47.63;19.10;;;5.30;99.90;;;;;;5109773;28;20126;-70
2022/01/23 07:39:10;;;;;;;40.25;18.20;;;5.30;99.90;;;;;;5110054;28;20039;-70
2022/01/23 07:41:36;;;;;;;37.75;17.08;;;;;;;;;;5093001;28;20165;-69
2022/01/23 07:44:02;;;;;;;42.00;16.85;;;5.30;99.90;;;;;;5109757;28;20051;-72
2022/01/23 07:46:29;;;;;;;37.65;17.20;;;5.60;99.90;;;;;;5109553;28;20046;-71
2022/01/23 07:48:55;;;;;;;45.70;18.73;;;5.40;99.90;;;;;;5111304;28;20039;-72
2022/01/23 07:51:22;;;;;;;48.20;18.98;;;5.30;99.90;;;;;;5109817;28;20100;-71
2022/01/23 07:53:47;;;;;;;45.90;18.17;;;5.40;99.90;;;;;;5111371;28;20050;-72
2022/01/23 07:56:13;;;;;;;55.10;19.25;;;;;;;;;;5110883;28;20039;-72
2022/01/23 07:58:39;;;;;;;38.72;17.17;;;;;;;;;;5111164;28;20460;-70
2022/01/23 08:01:06;;;;;;;49.80;20.25;;;5.40;99.90;;;;;;5109490;28;20134;-71
2022/01/23 08:03:32;;;;;;;53.00;19.10;;;;;;;;;;5110770;28;20131;-71
2022/01/23 08:05:57;;;;;;;41.65;17.70;;;5.40;99.90;;;;;;5109297;28;20127;-71
2022/01/23 08:08:23;;;;;;;45.10;19.20;;;;;;;;;;5110922;28;20542;-71
2022/01/23 08:10:49;;;;;;;43.83;19.55;;;4.90;99.90;;;;;;5109496;28;20131;-71
2022/01/23 08:13:15;;;;;;;48.33;21.00;;;5.50;99.90;;;;;;5109734;28;20126;-71
2022/01/23 08:15:40;;;;;;;53.05;21.20;;;5.60;99.90;;;;;;5097547;28;20449;-71
2022/01/23 08:18:08;;;;;;;52.38;21.17;;;5.30;99.90;;;;;;5119142;27;20063;-71
2022/01/23 08:20:35;;;;;;;48.35;21.50;;;5.40;99.90;;;;;;5121005;27;20057;-70
2022/01/23 08:23:02;;;;;;;44.63;18.88;;;5.50;99.90;;;;;;5120765;28;20499;-71
2022/01/23 08:25:32;;;;;;;54.15;28.15;;;5.60;99.90;;;;;;5108288;28;20078;-71
2022/01/23 08:27:58;;;;;;;50.67;26.48;;;5.60;99.90;;;;;;5120727;28;20055;-72
2022/01/23 08:30:24;;;;;;;64.60;32.33;;;5.60;99.90;;;;;;5120708;28;20069;-72
2022/01/23 08:32:50;;;;;;;71.43;36.35;;;5.70;99.90;;;;;;5130282;27;20095;-72
2022/01/23 08:35:16;;;;;;;65.45;29.13;;;5.50;99.90;;;;;;5130199;28;20039;-71
2022/01/23 08:37:42;;;;;;;44.13;20.15;;;;;;;;;;5128826;27;20039;-72
2022/01/23 08:40:18;;;;;;;43.58;21.45;;;5.10;99.90;;;;;;5128695;27;20039;-71
2022/01/23 08:42:44;;;;;;;50.35;24.67;;;5.60;99.90;;;;;;5111460;28;20043;-72
2022/01/23 08:45:10;;;;;;;57.47;24.38;;;5.40;99.90;;;;;;5128875;27;20428;-71
2022/01/23 08:47:38;;;;;;;46.60;22.15;;;5.80;99.90;;;;;;5128983;28;20414;-71
2022/01/23 08:50:04;;;;;;;51.90;22.00;;;5.40;99.90;;;;;;5129056;27;20479;-72
2022/01/23 08:52:30;;;;;;;47.03;20.85;;;;;;;;;;5129716;27;20081;-69
2022/01/23 08:54:56;;;;;;;45.38;19.90;;;;;;;;;;5130814;27;20070;-70
2022/01/23 08:57:24;;;;;;;43.83;20.58;;;5.60;99.90;;;;;;5128463;27;20155;-70
2022/01/23 08:59:50;;;;;;;40.38;19.38;;;5.80;99.90;;;;;;5122994;27;20061;-70
2022/01/23 09:02:17;;;;;;;44.38;21.52;;;;;;;;;;5109111;28;20080;-70
2022/01/23 09:04:43;;;;;;;38.42;19.30;;;5.80;99.90;;;;;;5107909;28;20539;-70
2022/01/23 09:07:09;;;;;;;40.17;23.38;;;5.30;99.90;;;;;;5097379;28;20791;-72
2022/01/23 09:09:38;;;;;;;46.60;22.27;;;5.80;99.90;;;;;;5118329;28;20063;-71
2022/01/23 09:12:07;;;;;;;44.30;22.17;;;6.10;99.90;;;;;;5113231;27;20118;-71
2022/01/23 09:14:33;;;;;;;38.80;20.58;;;6.00;99.90;;;;;;5115268;28;20048;-72
2022/01/23 09:17:04;;;;;;;35.53;18.73;;;6.00;99.90;;;;;;5120823;27;20043;-72
2022/01/23 09:19:30;;;;;;;39.50;18.15;;;6.10;99.90;;;;;;5112474;28;20047;-72
2022/01/23 09:21:57;;;;;;;31.48;17.52;;;6.10;99.90;;;;;;5125734;27;20051;-72
2022/01/23 09:24:25;;;;;;;32.90;18.02;;;5.90;99.90;;;;;;5133076;27;20063;-72
2022/01/23 09:27:01;;;;;;;31.75;17.00;;;6.10;99.90;;;;;;5114857;27;20062;-72
2022/01/23 09:29:35;;;;;;;33.58;17.10;;;6.30;99.90;;;;;;5132154;27;20506;-72
2022/01/23 09:32:06;;;;;;;31.75;15.82;;;6.20;99.90;;;;;;5133874;27;20494;-71
2022/01/23 09:34:33;;;;;;;29.52;15.88;;;5.90;99.90;;;;;;5133476;27;20088;-71
2022/01/23 09:37:04;;;;;;;26.80;15.55;;;6.10;99.90;;;;;;5132234;27;20043;-72
2022/01/23 09:39:30;;;;;;;30.35;16.17;;;;;;;;;;5132278;27;20031;-72
2022/01/23 09:42:22;;;;;;;28.83;15.93;;;6.20;99.90;;;;;;5133333;27;20063;-72
2022/01/23 09:44:57;;;;;;;34.40;16.35;;;6.30;99.90;;;;;;5131944;27;20095;-71
2022/01/23 09:47:23;;;;;;;28.10;15.00;;;6.30;99.90;;;;;;5131955;27;20506;-71
2022/01/23 09:49:50;;;;;;;33.15;22.25;;;5.90;99.90;;;;;;5131842;27;20047;-71
2022/01/23 09:52:21;;;;;;;24.20;14.77;;;6.80;99.90;;;;;;5115105;27;20036;-70
2022/01/23 09:54:57;;;;;;;23.42;13.80;;;6.50;99.90;;;;;;5112331;28;20398;-70
2022/01/23 09:57:28;;;;;;;25.08;14.18;;;6.30;99.90;;;;;;5112535;27;20051;-70
2022/01/23 09:59:54;;;;;;;26.58;13.38;;;6.80;99.90;;;;;;5111183;28;20043;-70
2022/01/23 10:02:20;;;;;;;23.98;14.65;;;;;;;;;;5111073;27;20035;-70
2022/01/23 10:04:46;;;;;;;24.42;14.25;;;6.60;99.90;;;;;;5112248;28;20043;-70
2022/01/23 10:07:13;;;;;;;25.05;14.63;;;6.80;99.90;;;;;;5111460;28;20048;-70
2022/01/23 10:09:38;;;;;;;22.52;12.77;;;6.90;99.90;;;;;;5110740;28;20491;-70
2022/01/23 10:12:07;;;;;;;22.23;13.15;;;6.60;99.90;;;;;;5110695;28;20051;-70
2022/01/23 10:14:35;;;;;;;21.17;12.88;;;7.40;99.90;;;;;;5092900;28;20384;-70
2022/01/23 10:17:02;;;;;;;24.00;13.65;;;;;;;;;;5111207;28;20829;-70
2022/01/23 10:19:29;;;;;;;21.08;12.85;;;6.90;99.90;;;;;;5111093;28;20090;-70
2022/01/23 10:21:55;;;;;;;22.52;12.88;;;6.70;99.90;;;;;;5115093;27;20040;-70
2022/01/23 10:24:21;;;;;;;20.15;12.35;;;;;;;;;;5091720;28;20059;-70
2022/01/23 10:26:53;;;;;;;17.52;10.73;;;7.10;99.90;;;;;;5090454;28;20048;-70
2022/01/23 10:29:27;;;;;;;15.32;10.48;;;7.10;99.90;;;;;;5090014;28;20047;-70
2022/01/23 10:32:14;;;;;;;17.17;10.82;;;6.70;99.90;;;;;;5090441;28;20048;-70
2022/01/23 10:35:00;;;;;;;17.05;10.93;;;7.10;99.90;;;;;;5073226;28;20380;-72
2022/01/23 10:37:37;;;;;;;14.98;9.48;;;6.60;99.90;;;;;;5089669;28;20061;-72
2022/01/23 10:40:21;;;;;;;9.98;7.45;;;6.90;99.90;;;;;;5091288;28;20052;-72
2022/01/23 10:50:44;;;;;;;8.55;6.32;;;7.30;99.90;;;;;;5108601;28;20051;-73
2022/01/23 10:53:10;;;;;;;10.95;6.63;;;7.20;99.90;;;;;;5110292;28;20046;-72
2022/01/23 10:55:38;;;;;;;12.10;6.22;;;7.10;99.90;;;;;;5111023;27;20093;-72
2022/01/23 10:58:16;;;;;;;14.35;8.70;;;7.00;99.90;;;;;;5110061;28;20050;-72
2022/01/23 11:00:42;;;;;;;9.35;6.57;;;7.10;99.90;;;;;;5111151;27;20054;-72
2022/01/23 11:03:18;;;;;;;10.05;6.63;;;7.30;99.90;;;;;;5111483;28;20047;-72
2022/01/23 11:05:44;;;;;;;14.18;7.78;;;7.10;99.90;;;;;;5104273;28;20081;-72
2022/01/23 11:08:25;;;;;;;12.75;7.82;;;7.10;99.90;;;;;;5093034;28;20039;-72
2022/01/23 11:11:01;;;;;;;8.00;5.70;;;7.50;99.90;;;;;;5109816;28;20153;-71
2022/01/23 11:19:21;;;;;;;9.90;6.30;;;7.40;99.90;;;;;;5109386;28;20054;-72
2022/01/23 11:21:48;;;;;;;11.82;6.60;;;7.70;99.90;;;;;;5108717;28;20062;-72
2022/01/23 11:24:14;;;;;;;7.50;4.60;;;7.20;99.90;;;;;;5109668;28;20043;-72
2022/01/23 11:26:42;;;;;;;8.65;6.25;;;8.00;99.90;;;;;;5125966;27;20384;-72
2022/01/23 11:29:16;;;;;;;8.02;4.95;;;7.20;99.90;;;;;;5109517;28;20118;-72
2022/01/23 11:31:43;;;;;;;6.70;4.18;;;7.50;99.90;;;;;;5109284;28;20137;-72
2022/01/23 11:34:14;;;;;;;3.92;2.88;;;7.70;99.90;;;;;;5109659;28;20526;-72
2022/01/23 11:36:42;;;;;;;4.50;2.67;;;7.40;99.90;;;;;;5108477;28;20503;-72
2022/01/23 11:39:13;;;;;;;4.50;3.05;;;7.80;99.90;;;;;;5110086;28;20043;-71
2022/01/23 11:56:35;;;;;;;5.47;3.30;;;7.50;99.90;;;;;;5105390;28;20044;-70
2022/01/23 11:59:23;;;;;;;7.18;2.95;;;7.40;99.90;;;;;;5095879;28;20132;-70
2022/01/23 12:02:12;;;;;;;3.05;2.42;;;7.40;99.90;;;;;;5106902;28;20084;-70
2022/01/23 12:04:39;;;;;;;4.28;2.30;;;7.30;99.90;;;;;;5096514;28;20062;-70
2022/01/23 12:07:15;;;;;;;2.78;1.77;;;7.40;99.90;;;;;;5110020;27;20063;-70
2022/01/23 12:10:02;;;;;;;3.63;2.08;;;7.40;99.90;;;;;;5108684;28;20086;-71
2022/01/23 12:12:39;;;;;;;6.18;3.47;;;;;;;;;;5125344;27;20077;-70
2022/01/23 12:18:22;;;;;;;;;;;7.30;99.90;;;;;;5109057;28;20142;-71
2022/01/23 12:20:52;;;;;;;4.77;3.27;;;7.50;99.90;;;;;;5084699;27;19916;-70
2022/01/23 12:23:19;;;;;;;5.15;3.70;;;7.40;99.90;;;;;;5097079;28;20115;-70
2022/01/23 12:25:57;;;;;;;4.63;3.60;;;7.30;99.90;;;;;;5110602;28;20086;-71
2022/01/23 12:28:32;;;;;;;9.18;6.15;;;7.90;99.90;;;;;;5110678;28;20118;-70
2022/01/23 12:31:17;;;;;;;8.65;5.85;;;7.70;99.90;;;;;;5109663;28;20043;-71
2022/01/23 12:33:43;;;;;;;6.63;5.13;;;7.20;99.90;;;;;;5109259;28;20181;-71
2022/01/23 12:36:29;;;;;;;11.65;9.52;;;7.50;99.90;;;;;;5110629;28;20118;-70
2022/01/23 12:39:06;;;;;;;5.20;3.97;;;7.40;99.90;;;;;;5109063;28;20047;-70
2022/01/23 12:41:37;;;;;;;9.00;7.68;;;7.20;99.90;;;;;;5109397;28;20503;-70
2022/01/23 12:44:03;;;;;;;8.70;5.07;;;;;;;;;;5111005;28;20051;-70
2022/01/23 12:46:36;;;;;;;6.53;4.95;;;7.20;99.90;;;;;;5108955;28;20040;-70
2022/01/23 12:49:17;;;;;;;5.90;4.32;;;7.30;99.90;;;;;;5110691;28;20055;-70
2022/01/23 12:51:43;;;;;;;4.95;3.95;;;;;;;;;;5093574;28;20040;-70
2022/01/23 12:54:10;;;;;;;5.65;4.63;;;7.20;99.90;;;;;;5114604;28;20046;-71
2022/01/23 12:56:45;;;;;;;8.07;4.65;;;7.20;99.90;;;;;;5113738;28;20380;-70
2022/01/23 12:59:23;;;;;;;6.78;4.50;;;7.20;99.90;;;;;;5113005;28;20075;-70
2022/01/23 13:01:54;;;;;;;5.78;4.30;;;7.70;99.90;;;;;;5113091;28;20039;-70
2022/01/23 13:04:20;;;;;;;4.47;3.72;;;7.10;99.90;;;;;;5114716;28;20377;-70
2022/01/23 13:07:01;;;;;;;4.90;3.67;;;7.10;99.90;;;;;;5114552;28;20054;-70
2022/01/23 13:12:12;;;;;;;4.53;3.35;;;7.20;99.90;;;;;;5114620;28;20051;-70
2022/01/23 13:30:34;;;;;;;3.78;2.50;;;7.10;99.90;;;;;;5114078;28;20035;-71
2022/01/23 13:33:10;;;;;;;5.03;2.60;;;6.90;99.90;;;;;;5112640;28;20117;-72
2022/01/23 13:35:41;;;;;;;7.50;2.80;;;7.10;99.90;;;;;;5112879;28;20111;-72
2022/01/23 13:38:12;;;;;;;3.60;2.60;;;;;;;;;;5112887;28;20054;-72
2022/01/23 13:40:41;;;;;;;4.82;2.97;;;;;;;;;;5112195;28;20388;-72
2022/01/23 13:49:14;;;;;;;5.10;3.30;;;;;;;;;;5113716;28;20082;-72
2022/01/23 14:00:13;;;;;;;4.18;2.67;;;6.80;99.90;;;;;;5112090;28;20055;-72
2022/01/23 14:02:47;;;;;;;4.53;3.03;;;6.80;99.90;;;;;;5111786;28;20503;-72
2022/01/23 14:05:19;;;;;;;4.13;2.70;;;6.90;99.90;;;;;;5113526;28;20091;-72
2022/01/23 14:07:48;;;;;;;3.45;2.75;;;6.70;99.90;;;;;;5111955;28;20075;-72
2022/01/23 14:10:30;;;;;;;5.28;2.90;;;6.90;99.90;;;;;;5112383;28;20052;-72
2022/01/23 14:13:14;;;;;;;3.40;2.47;;;6.60;99.90;;;;;;5112022;28;20031;-72
2022/01/23 14:15:51;;;;;;;4.10;2.65;;;6.80;99.90;;;;;;5113020;28;20047;-72
2022/01/23 14:18:22;;;;;;;4.50;2.83;;;6.60;99.90;;;;;;5112930;28;20043;-72
2022/01/23 14:21:09;;;;;;;4.05;2.60;;;6.60;99.90;;;;;;5111430;28;20467;-72
2022/01/23 14:23:36;;;;;;;3.10;2.55;;;6.40;99.90;;;;;;5094566;28;20058;-72
2022/01/23 14:26:08;;;;;;;3.70;2.50;;;6.50;99.90;;;;;;5111460;28;20047;-72
2022/01/23 14:28:45;;;;;;;2.92;2.40;;;6.90;99.90;;;;;;5112832;28;20047;-72
2022/01/23 14:31:19;;;;;;;4.75;3.45;;;6.90;99.90;;;;;;5111644;28;20047;-72
2022/01/23 14:33:51;;;;;;;4.10;2.70;;;6.70;99.90;;;;;;5111529;28;20063;-73
2022/01/23 14:36:23;;;;;;;4.93;2.65;;;6.60;99.90;;;;;;5111341;28;20051;-73
2022/01/23 14:39:08;;;;;;;3.38;2.55;;;6.60;99.90;;;;;;5112865;28;20044;-72
2022/01/23 14:41:37;;;;;;;3.57;2.30;;;6.60;99.90;;;;;;5112797;28;20328;-72
2022/01/23 14:44:22;;;;;;;3.25;2.42;;;6.70;99.90;;;;;;5112835;28;20288;-73
2022/01/23 14:46:51;;;;;;;3.50;2.58;;;6.60;99.90;;;;;;5128636;27;20407;-72
2022/01/23 14:49:26;;;;;;;4.07;2.65;;;6.60;99.90;;;;;;5111080;28;20055;-72
2022/01/23 14:51:53;;;;;;;3.30;2.67;;;6.70;99.90;;;;;;5111087;28;20051;-72
2022/01/23 14:54:20;;;;;;;3.42;2.40;;;6.50;99.90;;;;;;5112099;28;20044;-72
2022/01/23 14:56:46;;;;;;;3.05;2.30;;;6.10;99.90;;;;;;5110665;28;20055;-72
2022/01/23 14:59:14;;;;;;;3.08;2.50;;;6.50;99.90;;;;;;5110896;28;20052;-72
2022/01/23 15:01:43;;;;;;;3.25;2.38;;;6.60;99.90;;;;;;5110650;28;20043;-72
2022/01/23 15:04:10;;;;;;;4.13;2.60;;;6.80;99.90;;;;;;5112267;28;20051;-72
2022/01/23 15:06:52;;;;;;;3.10;2.45;;;6.50;99.90;;;;;;5112285;28;20039;-72
2022/01/23 15:09:21;;;;;;;3.20;2.40;;;6.60;99.90;;;;;;5110538;28;20555;-72
2022/01/23 15:11:48;;;;;;;5.43;2.90;;;6.80;99.90;;;;;;5110661;28;20071;-72
2022/01/23 15:14:14;;;;;;;4.70;3.17;;;6.10;99.90;;;;;;5111324;28;20135;-72
2022/01/23 15:16:41;;;;;;;4.00;3.17;;;6.80;99.90;;;;;;5110831;28;20492;-72
2022/01/23 15:19:10;;;;;;;5.47;3.42;;;6.70;99.90;;;;;;5110504;28;20048;-72
2022/01/23 15:21:36;;;;;;;4.25;3.10;;;7.00;99.90;;;;;;5110608;28;20401;-72
2022/01/23 15:24:03;;;;;;;4.88;3.30;;;6.50;99.90;;;;;;5110793;28;20054;-72
2022/01/23 15:26:33;;;;;;;3.80;3.17;;;6.50;99.90;;;;;;5112082;28;20039;-72
2022/01/23 15:28:59;;;;;;;4.13;3.05;;;;;;;;;;5111954;28;20044;-72
2022/01/23 15:31:25;;;;;;;5.38;3.63;;;6.40;99.90;;;;;;5110274;28;20122;-72
2022/01/23 15:33:51;;;;;;;4.60;3.28;;;6.30;99.90;;;;;;5110447;28;20805;-72
2022/01/23 15:36:17;;;;;;;4.53;3.20;;;;;;;;;;5110316;28;20631;-73
2022/01/23 15:38:44;;;;;;;6.10;3.33;;;6.40;99.90;;;;;;5110025;28;20048;-72
2022/01/23 15:41:11;;;;;;;4.72;3.45;;;6.50;99.90;;;;;;5112493;27;20051;-72
2022/01/23 15:43:37;;;;;;;4.93;3.47;;;;;;;;;;5130465;27;20144;-72
2022/01/23 15:46:04;;;;;;;4.28;3.40;;;6.60;99.90;;;;;;5130519;27;20067;-72
2022/01/23 15:48:30;;;;;;;5.70;4.32;;;6.50;99.90;;;;;;5132085;27;20051;-72
2022/01/23 15:51:02;;;;;;;6.78;3.70;;;6.40;99.90;;;;;;5116012;27;20048;-72
2022/01/23 15:53:30;;;;;;;4.20;3.53;;;6.50;99.90;;;;;;5110398;28;20502;-72
2022/01/23 15:55:56;;;;;;;5.93;3.08;;;6.60;99.90;;;;;;5110252;28;20122;-72
2022/01/23 15:58:22;;;;;;;4.78;3.38;;;;;;;;;;5110519;28;20131;-72
2022/01/23 16:00:48;;;;;;;4.35;3.28;;;5.70;99.90;;;;;;5109990;28;20043;-70
2022/01/23 16:03:14;;;;;;;4.60;3.35;;;6.30;99.90;;;;;;5109944;28;20044;-70
2022/01/23 16:05:39;;;;;;;4.35;3.30;;;6.70;99.90;;;;;;5111388;28;20035;-70
2022/01/23 16:08:07;;;;;;;4.90;3.50;;;6.20;99.90;;;;;;5092873;28;20388;-70
2022/01/23 16:10:33;;;;;;;4.35;3.40;;;;;;;;;;5110941;28;20083;-71
2022/01/23 16:12:58;;;;;;;5.93;3.92;;;6.40;99.90;;;;;;5092406;28;20089;-71
2022/01/23 16:15:24;;;;;;;4.30;3.33;;;6.20;99.90;;;;;;5092445;28;20051;-71
2022/01/23 16:17:50;;;;;;;4.95;3.20;;;;;;;;;;5110820;28;20047;-71
2022/01/23 16:20:20;;;;;;;4.70;3.30;;;;;;;;;;5109418;28;20058;-70
2022/01/23 16:22:47;;;;;;;5.00;3.47;;;6.20;99.90;;;;;;5109493;28;20119;-71
2022/01/23 16:25:15;;;;;;;6.32;3.55;;;6.70;99.90;;;;;;5109634;28;20050;-70
2022/01/23 16:27:41;;;;;;;4.93;3.60;;;6.50;99.90;;;;;;5116856;28;20061;-70
2022/01/23 16:30:09;;;;;;;4.95;3.80;;;6.10;99.90;;;;;;5117756;27;20048;-71
2022/01/23 16:32:38;;;;;;;4.20;3.70;;;6.50;99.90;;;;;;5133770;27;20146;-70
2022/01/23 16:35:05;;;;;;;4.63;3.45;;;6.40;99.90;;;;;;5115944;28;20079;-70
2022/01/23 16:37:31;;;;;;;5.80;3.28;;;6.40;99.90;;;;;;5114282;28;20067;-71
2022/01/23 16:39:57;;;;;;;6.15;3.20;;;;;;;;;;5115713;28;20082;-71
2022/01/23 16:42:23;;;;;;;5.05;3.53;;;;;;;;;;5116675;28;20491;-70
2022/01/23 16:44:48;;;;;;;4.07;3.10;;;6.00;99.90;;;;;;5084451;27;20063;-70
2022/01/23 16:47:14;;;;;;;5.38;3.78;;;6.40;99.90;;;;;;5113787;27;20070;-70
2022/01/23 16:49:40;;;;;;;5.25;3.63;;;6.30;99.90;;;;;;5136502;27;20051;-70
2022/01/23 16:52:09;;;;;;;4.32;3.17;;;6.30;99.90;;;;;;5118043;27;20150;-70
2022/01/23 16:54:36;;;;;;;5.28;3.00;;;5.80;99.90;;;;;;5128254;27;20140;-70
2022/01/23 16:57:03;;;;;;;4.32;3.28;;;6.40;99.90;;;;;;5115220;28;20071;-70